Time;durP1;ratioP1;P1;durP2;ratioP2;P2;SDS_P1;SDS_P2;PMS_P1;PMS_P2;Temp;Humidity;BMP_temperature;BMP_pressure;BME280_temperature;BME280_humidity;BME280_pressure;Samples;Min_cycle;Max_cycle;Signal;HPM_P1;HPM_P2
2022/11/07 00:01:07;;;;;;;58.00;40.20;;;307.20;2304.00;;;;;;5151424;27;20026;-63
2022/11/07 00:03:33;;;;;;;71.93;44.83;;;307.30;2304.00;;;;;;5152186;27;20027;-62
2022/11/07 00:05:58;;;;;;;59.42;41.78;;;307.40;2304.00;;;;;;5153935;27;20034;-64
2022/11/07 00:08:30;;;;;;;63.17;42.80;;;307.30;2304.00;;;;;;5152931;27;20026;-64
2022/11/07 00:10:57;;;;;;;62.00;44.40;;;307.30;2304.00;;;;;;5153315;27;20346;-63
2022/11/07 00:13:23;;;;;;;68.70;49.25;;;307.30;2304.00;;;;;;5153364;27;20025;-64
2022/11/07 00:15:48;;;;;;;77.50;51.22;;;307.30;2304.00;;;;;;5153214;27;20039;-64
2022/11/07 00:18:14;;;;;;;66.63;45.95;;;307.20;2304.00;;;;;;5153075;27;20019;-62
2022/11/07 00:20:40;;;;;;;61.00;44.20;;;307.30;2304.00;;;;;;5153240;27;20058;-63
2022/11/07 00:23:05;;;;;;;75.65;48.53;;;307.30;2304.00;;;;;;5143136;27;20019;-63
2022/11/07 00:25:31;;;;;;;66.30;43.78;;;307.50;2304.00;;;;;;5141944;27;20442;-63
2022/11/07 00:27:57;;;;;;;61.42;43.33;;;307.50;2304.00;;;;;;5141748;27;20026;-64
2022/11/07 00:30:22;;;;;;;70.60;42.80;;;307.50;2304.00;;;;;;5143138;27;20033;-62
2022/11/07 00:32:48;;;;;;;59.10;39.35;;;307.30;2304.00;;;;;;5143918;27;20019;-63
2022/11/07 00:35:14;;;;;;;51.03;37.42;;;307.30;2304.00;;;;;;5142632;27;20026;-63
2022/11/07 00:37:39;;;;;;;59.63;36.30;;;307.40;2304.00;;;;;;5142631;27;20457;-63
2022/11/07 00:40:06;;;;;;;55.20;35.47;;;307.50;2304.00;;;;;;5140378;27;20023;-64
2022/11/07 00:42:32;;;;;;;49.13;33.03;;;307.60;2304.00;;;;;;5142441;27;20030;-65
2022/11/07 00:44:57;;;;;;;51.97;34.53;;;307.50;2304.00;;;;;;5141990;27;20475;-65
2022/11/07 00:47:23;;;;;;;45.20;31.48;;;307.40;2304.00;;;;;;5135228;27;20027;-63
2022/11/07 00:49:49;;;;;;;49.55;33.22;;;307.50;2304.00;;;;;;5131933;27;20152;-64
2022/11/07 00:52:15;;;;;;;58.25;35.00;;;307.50;2304.00;;;;;;5131814;27;20050;-63
2022/11/07 00:54:40;;;;;;;49.03;30.77;;;307.50;2304.00;;;;;;5131755;27;20096;-64
2022/11/07 00:57:06;;;;;;;74.15;35.00;;;307.60;2304.00;;;;;;5112768;27;20043;-63
2022/11/07 00:59:32;;;;;;;50.13;31.98;;;307.60;2304.00;;;;;;5131844;27;20441;-65
2022/11/07 01:01:57;;;;;;;59.25;36.60;;;307.60;2304.00;;;;;;5131504;27;20030;-64
2022/11/07 01:07:07;;;;;;;56.67;35.72;;;307.60;2304.00;;;;;;5131682;27;20114;-64
2022/11/07 01:09:33;;;;;;;49.10;31.90;;;307.60;2304.00;;;;;;5131339;27;20503;-63
2022/11/07 01:11:59;;;;;;;55.88;33.00;;;307.70;2304.00;;;;;;5131473;27;20031;-63
2022/11/07 01:14:25;;;;;;;54.05;34.15;;;307.70;2278.40;;;;;;5131323;27;20110;-63
2022/11/07 01:16:51;;;;;;;54.17;32.35;;;307.80;2304.00;;;;;;5131307;27;20053;-63
2022/11/07 01:19:18;;;;;;;54.13;35.08;;;307.80;2304.00;;;;;;5131468;27;20059;-62
2022/11/07 01:21:44;;;;;;;53.30;33.55;;;307.70;2304.00;;;;;;5131535;27;20430;-62
2022/11/07 01:24:12;;;;;;;53.92;33.67;;;307.70;2150.40;;;;;;5131420;27;20054;-63
2022/11/07 01:26:39;;;;;;;57.33;35.10;;;307.80;1920.00;;;;;;5131173;27;20495;-63
2022/11/07 01:29:05;;;;;;;56.03;35.63;;;307.70;1945.60;;;;;;5131133;27;20051;-63
2022/11/07 01:31:31;;;;;;;58.88;36.30;;;307.80;1920.00;;;;;;5131165;27;20145;-63
2022/11/07 01:33:58;;;;;;;64.78;34.78;;;307.70;2048.00;;;;;;5131134;27;20019;-62
2022/11/07 01:36:24;;;;;;;64.07;38.58;;;307.80;2304.00;;;;;;5131115;27;20038;-62
2022/11/07 01:38:50;;;;;;;60.60;34.33;;;307.80;2304.00;;;;;;5131033;27;20027;-63
2022/11/07 01:41:20;;;;;;;57.85;34.45;;;307.70;2304.00;;;;;;5130954;27;20047;-65
2022/11/07 01:44:07;;;;;;;55.78;32.55;;;307.60;2304.00;;;;;;5131005;27;20102;-65
2022/11/07 01:46:32;;;;;;;48.05;30.48;;;307.60;2304.00;;;;;;5131386;28;20241;-64
2022/11/07 01:49:01;;;;;;;55.78;31.65;;;307.50;2304.00;;;;;;5130807;28;20102;-64
2022/11/07 01:51:28;;;;;;;69.72;36.97;;;307.60;2304.00;;;;;;5130882;28;20476;-63
2022/11/07 01:53:54;;;;;;;47.72;28.30;;;307.70;2304.00;;;;;;5131031;28;20473;-63
2022/11/07 01:56:25;;;;;;;59.83;29.73;;;307.70;2304.00;;;;;;5131029;28;20031;-64
2022/11/07 01:58:53;;;;;;;92.07;52.00;;;307.70;2304.00;;;;;;5130951;28;20015;-64
2022/11/07 02:01:18;;;;;;;80.70;47.20;;;307.60;2304.00;;;;;;5130915;28;20034;-64
2022/11/07 02:03:45;;;;;;;66.35;41.88;;;307.50;2048.00;;;;;;5131018;28;20368;-64
2022/11/07 02:06:23;;;;;;;75.53;41.70;;;307.40;2304.00;;;;;;5131099;28;20665;-63
2022/11/07 02:08:50;;;;;;;63.50;37.55;;;307.30;2304.00;;;;;;5130754;28;20030;-65
2022/11/07 02:11:17;;;;;;;60.30;37.45;;;307.30;2304.00;;;;;;5130624;28;20039;-64
2022/11/07 02:13:43;;;;;;;68.40;39.95;;;307.60;2304.00;;;;;;5130988;27;20030;-64
2022/11/07 02:16:08;;;;;;;67.72;35.47;;;307.60;2227.20;;;;;;5134937;27;20035;-64
2022/11/07 02:18:38;;;;;;;74.38;41.00;;;307.50;2304.00;;;;;;5134608;27;20377;-64
2022/11/07 02:21:20;;;;;;;84.03;48.03;;;307.40;2304.00;;;;;;5134719;27;20030;-63
2022/11/07 02:24:06;;;;;;;77.00;41.85;;;307.30;2304.00;;;;;;5134581;27;20098;-64
2022/11/07 02:26:34;;;;;;;58.65;37.67;;;307.40;2304.00;;;;;;5120349;27;20392;-63
2022/11/07 02:29:03;;;;;;;73.03;42.88;;;307.40;2304.00;;;;;;5134597;27;20019;-64
2022/11/07 02:31:29;;;;;;;74.70;42.13;;;307.40;2304.00;;;;;;5134753;27;20027;-63
2022/11/07 02:33:55;;;;;;;66.47;37.97;;;307.40;2304.00;;;;;;5134224;27;20046;-64
2022/11/07 02:36:22;;;;;;;74.88;39.25;;;307.40;2304.00;;;;;;5134687;27;20066;-62
2022/11/07 02:38:56;;;;;;;73.18;38.25;;;307.40;2304.00;;;;;;5134080;27;20034;-64
2022/11/07 02:41:29;;;;;;;66.35;39.03;;;307.40;2304.00;;;;;;5134532;27;20046;-63
2022/11/07 02:43:59;;;;;;;70.13;38.65;;;307.40;2304.00;;;;;;5134322;27;20028;-64
2022/11/07 02:46:26;;;;;;;66.05;38.30;;;307.50;2304.00;;;;;;5134249;27;20031;-64
2022/11/07 02:48:55;;;;;;;67.80;38.70;;;307.30;2304.00;;;;;;5134341;27;20027;-65
2022/11/07 02:51:21;;;;;;;70.85;40.55;;;307.20;2304.00;;;;;;5134299;27;20023;-65
2022/11/07 02:53:46;;;;;;;82.72;38.67;;;282.50;2278.40;;;;;;5133935;27;20118;-64
2022/11/07 02:56:13;;;;;;;76.38;36.38;;;282.40;2278.40;;;;;;5134328;27;20072;-64
2022/11/07 02:58:38;;;;;;;62.65;34.42;;;282.50;2278.40;;;;;;5133981;27;20023;-64
2022/11/07 03:01:08;;;;;;;62.67;37.00;;;282.50;2278.40;;;;;;5133793;27;20031;-65
2022/11/07 03:03:39;;;;;;;77.45;36.88;;;307.20;2304.00;;;;;;5134057;27;20031;-65
2022/11/07 03:06:06;;;;;;;69.07;38.38;;;307.20;1920.00;;;;;;5133779;27;20027;-64
2022/11/07 03:08:32;;;;;;;78.07;40.05;;;307.20;2304.00;;;;;;5133877;27;20376;-64
2022/11/07 03:10:58;;;;;;;64.63;38.25;;;307.20;2304.00;;;;;;5133736;27;20024;-65
2022/11/07 03:13:23;;;;;;;74.50;38.47;;;307.20;2304.00;;;;;;5133802;27;20023;-65
2022/11/07 03:15:49;;;;;;;70.03;37.75;;;307.30;2304.00;;;;;;5133690;27;20031;-64
2022/11/07 03:18:15;;;;;;;86.05;43.47;;;307.20;2304.00;;;;;;5133524;27;20048;-66
2022/11/07 03:20:41;;;;;;;83.18;42.65;;;282.50;2278.40;;;;;;5133756;27;20034;-67
2022/11/07 03:23:07;;;;;;;82.82;41.78;;;282.50;2048.00;;;;;;5133528;27;20023;-64
2022/11/07 03:25:33;;;;;;;79.72;40.15;;;282.50;2278.40;;;;;;5133108;27;20046;-66
2022/11/07 03:27:58;;;;;;;81.60;43.35;;;307.30;2304.00;;;;;;5133037;27;20530;-65
2022/11/07 03:30:24;;;;;;;79.15;38.47;;;307.20;2304.00;;;;;;5133542;27;20479;-63
2022/11/07 03:32:53;;;;;;;77.97;38.15;;;307.30;2304.00;;;;;;5133576;27;20030;-64
2022/11/07 03:35:20;;;;;;;79.10;39.60;;;307.30;2304.00;;;;;;5133224;27;20028;-65
2022/11/07 03:37:46;;;;;;;78.38;38.47;;;307.30;2304.00;;;;;;5133553;27;20031;-64
2022/11/07 03:40:13;;;;;;;86.05;39.78;;;307.50;2304.00;;;;;;5133140;27;20358;-60
2022/11/07 03:42:39;;;;;;;66.78;37.03;;;307.40;2304.00;;;;;;5133192;27;20114;-64
2022/11/07 03:45:10;;;;;;;70.28;40.80;;;307.50;2304.00;;;;;;5133269;27;20053;-63
2022/11/07 03:47:38;;;;;;;78.22;39.17;;;307.60;2304.00;;;;;;5133128;27;20027;-64
2022/11/07 03:50:05;;;;;;;83.25;40.92;;;307.50;2304.00;;;;;;5133172;27;20034;-66
2022/11/07 03:52:31;;;;;;;89.28;42.10;;;307.50;2304.00;;;;;;5133235;27;20027;-70
2022/11/07 03:54:56;;;;;;;82.45;39.95;;;307.40;2304.00;;;;;;5132850;27;20065;-67
2022/11/07 03:57:22;;;;;;;79.15;38.80;;;307.40;2304.00;;;;;;5133141;27;20204;-63
2022/11/07 03:59:48;;;;;;;82.80;41.28;;;307.50;2304.00;;;;;;5132993;27;20436;-63
2022/11/07 04:02:14;;;;;;;96.68;44.13;;;307.60;2304.00;;;;;;5133064;27;20096;-64
2022/11/07 04:04:40;;;;;;;95.97;43.80;;;307.50;2304.00;;;;;;5132869;27;20019;-64
2022/11/07 04:07:05;;;;;;;89.65;43.58;;;307.40;2304.00;;;;;;5132618;27;20053;-63
2022/11/07 04:09:31;;;;;;;85.57;41.90;;;307.50;2304.00;;;;;;5132404;27;20079;-64
2022/11/07 04:17:26;;;;;;;94.80;45.30;;;307.50;2304.00;;;;;;5132547;27;20388;-64
2022/11/07 04:19:54;;;;;;;84.03;43.40;;;307.40;2304.00;;;;;;5132831;27;20027;-64
2022/11/07 04:22:24;;;;;;;99.53;46.80;;;307.30;2304.00;;;;;;5132482;27;20483;-65
2022/11/07 04:24:50;;;;;;;107.20;44.17;;;307.30;2304.00;;;;;;5132411;27;20023;-64
2022/11/07 04:30:25;;;;;;;92.75;45.38;;;307.20;2304.00;;;;;;5132683;27;20030;-64
2022/11/07 04:32:56;;;;;;;98.03;44.83;;;307.30;2304.00;;;;;;5132449;27;20046;-65
2022/11/07 04:35:23;;;;;;;96.15;43.28;;;307.30;2304.00;;;;;;5132085;27;20468;-64
2022/11/07 04:37:49;;;;;;;91.25;42.78;;;307.50;2304.00;;;;;;5131065;27;20104;-66
2022/11/07 04:40:16;;;;;;;99.47;44.28;;;307.40;2304.00;;;;;;5131812;27;20048;-64
2022/11/07 04:42:43;;;;;;;85.15;43.20;;;307.50;2304.00;;;;;;5132260;27;20035;-64
2022/11/07 04:45:10;;;;;;;101.47;43.33;;;307.20;2304.00;;;;;;5132092;27;20024;-63
2022/11/07 04:47:35;;;;;;;90.97;45.35;;;307.40;2304.00;;;;;;5131915;27;20508;-64
2022/11/07 04:50:01;;;;;;;90.28;46.60;;;307.40;2304.00;;;;;;5131987;27;20051;-65
2022/11/07 04:52:27;;;;;;;101.97;43.50;;;307.30;2304.00;;;;;;5131820;27;20066;-65
2022/11/07 04:54:53;;;;;;;98.47;46.78;;;307.40;2304.00;;;;;;5131663;27;20023;-64
2022/11/07 04:57:18;;;;;;;92.22;44.20;;;307.40;2304.00;;;;;;5131505;27;20027;-62
2022/11/07 04:59:44;;;;;;;112.55;49.90;;;307.30;2304.00;;;;;;5131974;27;20110;-62
2022/11/07 05:02:11;;;;;;;107.13;46.60;;;307.30;2304.00;;;;;;5131817;27;20027;-62
2022/11/07 05:04:37;;;;;;;102.93;46.50;;;307.50;2304.00;;;;;;5131681;27;20023;-62
2022/11/07 05:07:03;;;;;;;120.75;53.80;;;307.50;2304.00;;;;;;5131781;27;20046;-64
2022/11/07 05:09:29;;;;;;;119.13;54.08;;;307.30;2304.00;;;;;;5131279;27;20461;-61
2022/11/07 05:11:55;;;;;;;111.22;50.58;;;307.20;2304.00;;;;;;5131624;27;20412;-63
2022/11/07 05:14:21;;;;;;;111.07;52.83;;;282.50;2278.40;;;;;;5131770;27;20023;-64
2022/11/07 05:16:48;;;;;;;103.78;53.72;;;307.30;2304.00;;;;;;5131246;27;20488;-65
2022/11/07 05:19:18;;;;;;;115.97;54.78;;;307.20;2304.00;;;;;;5131694;27;20110;-64
2022/11/07 05:21:44;;;;;;;120.22;51.85;;;307.20;2304.00;;;;;;5131546;27;20099;-63
2022/11/07 05:24:11;;;;;;;108.72;52.10;;;307.20;2304.00;;;;;;5131263;27;20485;-64
2022/11/07 05:26:36;;;;;;;113.53;50.47;;;307.20;2304.00;;;;;;5131022;27;20038;-63
2022/11/07 05:29:03;;;;;;;101.80;49.58;;;307.20;2304.00;;;;;;5131246;27;20369;-63
2022/11/07 05:31:29;;;;;;;98.40;48.00;;;307.40;2304.00;;;;;;5131151;27;20019;-63
2022/11/07 05:33:54;;;;;;;113.10;50.25;;;307.50;2304.00;;;;;;5131234;27;20031;-61
2022/11/07 05:36:22;;;;;;;125.68;50.53;;;307.60;2304.00;;;;;;5131174;27;20039;-63
2022/11/07 05:38:51;;;;;;;117.10;47.03;;;307.60;2304.00;;;;;;5131181;27;20027;-63
2022/11/07 05:41:18;;;;;;;122.70;54.08;;;307.50;2304.00;;;;;;5130814;27;20047;-61
2022/11/07 05:43:45;;;;;;;100.03;54.72;;;307.50;2304.00;;;;;;5131355;27;20022;-62
2022/11/07 05:46:10;;;;;;;116.72;52.00;;;307.50;2304.00;;;;;;5131205;28;20050;-63
2022/11/07 05:48:36;;;;;;;94.30;46.50;;;307.60;2304.00;;;;;;5130661;27;20481;-62
2022/11/07 05:51:04;;;;;;;107.63;49.72;;;307.60;2304.00;;;;;;5131010;28;20030;-63
2022/11/07 05:53:30;;;;;;;94.38;45.85;;;307.60;2304.00;;;;;;5130902;28;20018;-61
2022/11/07 05:55:56;;;;;;;106.03;47.22;;;307.60;2304.00;;;;;;5130644;28;20027;-62
2022/11/07 05:58:22;;;;;;;106.65;45.08;;;307.60;2304.00;;;;;;5131040;28;20030;-63
2022/11/07 06:00:47;;;;;;;94.72;44.65;;;307.60;2304.00;;;;;;5130643;28;20521;-63
2022/11/07 06:03:14;;;;;;;94.25;44.33;;;307.70;2304.00;;;;;;5131084;28;20059;-63
2022/11/07 06:05:41;;;;;;;92.50;45.42;;;307.70;2022.40;;;;;;5130953;28;20044;-63
2022/11/07 06:08:10;;;;;;;98.85;45.80;;;307.80;1996.80;;;;;;5130688;28;20035;-64
2022/11/07 06:10:37;;;;;;;82.30;42.67;;;307.90;1920.00;;;;;;5130543;28;20028;-64
2022/11/07 06:13:05;;;;;;;85.07;41.50;;;307.90;2176.00;;;;;;5130791;28;20373;-64
2022/11/07 06:15:33;;;;;;;86.03;41.60;;;308.00;1920.00;;;;;;5130566;28;20061;-63
2022/11/07 06:18:03;;;;;;;100.25;45.25;;;308.10;2304.00;;;;;;5130462;28;20038;-63
2022/11/07 06:20:29;;;;;;;82.65;39.33;;;308.10;2304.00;;;;;;5130610;28;20023;-61
2022/11/07 06:22:59;;;;;;;86.53;40.22;;;308.10;2304.00;;;;;;5130603;28;20497;-63
2022/11/07 06:25:26;;;;;;;88.38;43.80;;;308.10;2304.00;;;;;;5130356;28;20023;-63
2022/11/07 06:27:52;;;;;;;85.85;41.35;;;332.80;2329.60;;;;;;5130951;28;20023;-63
2022/11/07 06:30:18;;;;;;;83.82;42.58;;;332.80;2329.60;;;;;;5130438;28;20350;-63
2022/11/07 06:32:44;;;;;;;84.15;42.90;;;308.10;2304.00;;;;;;5130764;28;20429;-63
2022/11/07 06:35:11;;;;;;;83.70;43.78;;;332.80;2329.60;;;;;;5130565;28;20027;-61
2022/11/07 06:37:37;;;;;;;81.78;42.33;;;332.90;2329.60;;;;;;5130460;28;20106;-63
2022/11/07 06:40:04;;;;;;;82.95;47.55;;;332.80;2329.60;;;;;;5130401;28;20578;-63
2022/11/07 06:42:31;;;;;;;97.85;46.40;;;332.90;2329.60;;;;;;5130397;28;20132;-64
2022/11/07 06:44:56;;;;;;;91.50;43.38;;;332.90;2329.60;;;;;;5130311;28;20030;-64
2022/11/07 06:47:22;;;;;;;88.30;47.75;;;333.00;2329.60;;;;;;5130625;28;20019;-65
2022/11/07 06:49:48;;;;;;;98.25;43.15;;;333.00;2329.60;;;;;;5130435;28;20109;-64
2022/11/07 06:52:13;;;;;;;84.63;43.25;;;333.10;2329.60;;;;;;5130676;28;20046;-64
2022/11/07 06:54:39;;;;;;;97.38;54.67;;;333.10;2329.60;;;;;;5130285;28;20039;-63
2022/11/07 06:57:05;;;;;;;97.07;53.47;;;333.00;2329.60;;;;;;5130174;28;20045;-63
2022/11/07 06:59:31;;;;;;;98.07;48.13;;;333.00;2329.60;;;;;;5130472;28;20484;-62
2022/11/07 07:01:56;;;;;;;91.07;48.38;;;332.90;2329.60;;;;;;5131993;27;20027;-59
2022/11/07 07:04:22;;;;;;;92.32;48.30;;;333.00;2329.60;;;;;;5134201;27;20047;-63
2022/11/07 07:06:47;;;;;;;90.07;46.55;;;333.00;2329.60;;;;;;5133706;27;20024;-64
2022/11/07 07:09:13;;;;;;;88.50;48.65;;;333.10;2329.60;;;;;;5133972;27;20030;-64
2022/11/07 07:11:41;;;;;;;100.63;47.58;;;333.10;2329.60;;;;;;5133454;27;20088;-62
2022/11/07 07:14:07;;;;;;;91.45;42.97;;;333.10;2329.60;;;;;;5133604;27;20038;-64
2022/11/07 07:16:33;;;;;;;90.85;47.53;;;333.10;2329.60;;;;;;5133879;27;20031;-68
2022/11/07 07:18:58;;;;;;;91.50;45.33;;;333.10;2329.60;;;;;;5133674;27;20469;-66
2022/11/07 07:21:25;;;;;;;99.65;43.92;;;333.20;2329.60;;;;;;5133775;27;20027;-66
2022/11/07 07:23:50;;;;;;;93.32;48.63;;;333.30;2329.60;;;;;;5133588;27;20030;-68
2022/11/07 07:26:16;;;;;;;84.32;44.67;;;333.40;2329.60;;;;;;5133466;27;20023;-63
2022/11/07 07:28:43;;;;;;;90.70;44.92;;;333.30;2329.60;;;;;;5133626;27;20342;-68
2022/11/07 07:31:14;;;;;;;86.85;45.45;;;333.50;2329.60;;;;;;5133479;27;20023;-64
2022/11/07 07:33:45;;;;;;;94.32;49.50;;;333.40;2329.60;;;;;;5133529;27;20050;-62
2022/11/07 07:36:11;;;;;;;91.30;46.53;;;333.60;2329.60;;;;;;5133525;27;20035;-67
2022/11/07 07:38:38;;;;;;;84.25;44.60;;;358.40;2329.60;;;;;;5133018;27;20548;-65
2022/11/07 07:41:04;;;;;;;111.35;67.32;;;358.60;2329.60;;;;;;5133095;27;20397;-64
2022/11/07 07:43:30;;;;;;;81.93;44.97;;;358.60;2329.60;;;;;;5133324;27;20457;-68
2022/11/07 07:46:01;;;;;;;94.25;50.08;;;358.70;2329.60;;;;;;5132990;27;20030;-68
2022/11/07 07:48:27;;;;;;;92.03;50.30;;;358.90;2329.60;;;;;;5133072;27;20068;-66
2022/11/07 07:50:53;;;;;;;80.72;45.03;;;358.90;2329.60;;;;;;5133291;27;20023;-66
2022/11/07 07:53:20;;;;;;;84.57;49.03;;;358.90;2329.60;;;;;;5132991;27;20516;-66
2022/11/07 07:55:46;;;;;;;84.75;45.03;;;359.00;2329.60;;;;;;5132774;27;20083;-67
2022/11/07 07:58:12;;;;;;;77.30;41.70;;;358.80;2329.60;;;;;;5133080;27;20027;-68
2022/11/07 08:00:38;;;;;;;83.60;49.28;;;358.90;2329.60;;;;;;5132855;27;20457;-64
2022/11/07 08:03:09;;;;;;;85.63;49.20;;;358.90;2329.60;;;;;;5132840;27;20051;-60
2022/11/07 08:05:36;;;;;;;84.38;50.85;;;358.80;2329.60;;;;;;5132757;27;20102;-68
2022/11/07 08:08:03;;;;;;;89.80;52.08;;;358.90;2329.60;;;;;;5132782;27;20022;-66
2022/11/07 08:10:29;;;;;;;96.93;54.97;;;359.00;2329.60;;;;;;5132437;27;20031;-68
2022/11/07 08:12:54;;;;;;;86.97;54.45;;;359.00;2329.60;;;;;;5132341;27;20024;-67
2022/11/07 08:15:21;;;;;;;92.80;56.03;;;358.70;2329.60;;;;;;5132706;27;20551;-68
2022/11/07 08:17:46;;;;;;;77.18;43.55;;;358.50;2329.60;;;;;;5132450;27;20019;-59
2022/11/07 08:20:14;;;;;;;85.85;49.05;;;358.50;2329.60;;;;;;5132675;27;20016;-64
2022/11/07 08:22:40;;;;;;;81.70;48.92;;;358.50;2329.60;;;;;;5132493;27;20031;-67
2022/11/07 08:25:08;;;;;;;93.35;54.85;;;358.70;2329.60;;;;;;5132067;27;20068;-68
2022/11/07 08:27:35;;;;;;;97.55;55.22;;;358.50;2329.60;;;;;;5132544;27;20058;-68
2022/11/07 08:30:01;;;;;;;96.40;55.72;;;358.60;2329.60;;;;;;5132447;27;20027;-69
2022/11/07 08:32:27;;;;;;;92.93;50.15;;;358.80;2329.60;;;;;;5132254;27;20031;-68
2022/11/07 08:34:54;;;;;;;88.72;54.97;;;358.80;2329.60;;;;;;5132583;27;20029;-62
2022/11/07 08:37:19;;;;;;;96.95;50.45;;;358.50;2329.60;;;;;;5132177;27;20118;-69
2022/11/07 08:39:45;;;;;;;101.03;55.17;;;358.50;2329.60;;;;;;5131758;27;20468;-65
2022/11/07 08:42:11;;;;;;;97.13;57.85;;;358.70;2329.60;;;;;;5131960;27;20055;-69
2022/11/07 08:44:36;;;;;;;101.90;58.15;;;358.80;2329.60;;;;;;5132086;27;20023;-65
2022/11/07 08:47:03;;;;;;;121.25;68.78;;;358.80;2329.60;;;;;;5113895;27;20046;-65
2022/11/07 08:49:29;;;;;;;111.50;73.53;;;359.00;2329.60;;;;;;5132180;27;20019;-64
2022/11/07 08:51:54;;;;;;;100.07;63.42;;;359.30;2329.60;;;;;;5132156;27;20369;-65
2022/11/07 08:54:20;;;;;;;82.43;50.13;;;384.00;2329.60;;;;;;5132163;27;20034;-68
2022/11/07 08:56:49;;;;;;;81.57;49.97;;;384.10;2329.60;;;;;;5131673;27;20480;-64
2022/11/07 08:59:15;;;;;;;87.97;51.03;;;359.20;2329.60;;;;;;5131857;27;20103;-60
2022/11/07 09:01:40;;;;;;;77.15;48.30;;;359.20;2329.60;;;;;;5131910;27;20050;-60
2022/11/07 09:04:06;;;;;;;85.95;52.83;;;359.30;2329.60;;;;;;5131603;27;20100;-58
2022/11/07 09:06:32;;;;;;;97.90;55.47;;;384.10;2329.60;;;;;;5131865;27;20023;-67
2022/11/07 09:08:58;;;;;;;121.53;74.45;;;384.20;2329.60;;;;;;5131778;27;20058;-69
2022/11/07 09:11:25;;;;;;;130.43;75.70;;;384.20;2329.60;;;;;;5131469;27;20110;-66
2022/11/07 09:13:52;;;;;;;101.03;68.30;;;384.00;2329.60;;;;;;5131552;27;20023;-62
2022/11/07 09:16:19;;;;;;;99.20;66.85;;;384.20;2329.60;;;;;;5131438;27;20394;-67
2022/11/07 09:18:46;;;;;;;89.57;53.58;;;384.10;2329.60;;;;;;5131532;27;20106;-68
2022/11/07 09:21:12;;;;;;;95.63;62.67;;;384.30;2329.60;;;;;;5131597;27;20034;-64
2022/11/07 09:23:38;;;;;;;91.50;54.42;;;384.40;2329.60;;;;;;5130639;27;20015;-68
2022/11/07 09:26:05;;;;;;;71.80;45.88;;;384.40;2329.60;;;;;;5131184;27;20117;-69
2022/11/07 09:28:31;;;;;;;80.38;45.65;;;384.50;2329.60;;;;;;5131279;27;20022;-68
2022/11/07 09:30:58;;;;;;;112.22;86.15;;;384.40;2329.60;;;;;;5131066;27;20029;-68
2022/11/07 09:33:24;;;;;;;66.22;43.55;;;384.40;2329.60;;;;;;5131214;27;20062;-61
2022/11/07 09:35:50;;;;;;;69.68;42.80;;;384.40;2329.60;;;;;;5131209;27;20027;-69
2022/11/07 09:38:16;;;;;;;82.07;47.80;;;384.40;2329.60;;;;;;5131114;27;20030;-65
2022/11/07 09:40:48;;;;;;;79.15;45.97;;;384.30;2329.60;;;;;;5130967;27;20064;-69
2022/11/07 09:43:22;;;;;;;75.22;46.08;;;384.30;2329.60;;;;;;5131578;27;20422;-58
2022/11/07 09:46:23;;;;;;;77.43;43.90;;;384.40;2329.60;;;;;;5131053;27;20453;-68
2022/11/07 09:49:12;;;;;;;86.45;49.05;;;384.40;2329.60;;;;;;5112947;28;20046;-63
2022/11/07 09:51:44;;;;;;;54.40;35.33;;;384.60;2329.60;;;;;;5131192;28;20027;-64
2022/11/07 09:54:25;;;;;;;55.00;33.13;;;384.70;2329.60;;;;;;5131110;28;20034;-69
2022/11/07 09:56:51;;;;;;;53.38;33.75;;;384.80;2329.60;;;;;;5130987;28;20560;-61
2022/11/07 09:59:24;;;;;;;49.30;29.38;;;384.90;2329.60;;;;;;5130875;28;20081;-61
2022/11/07 10:01:50;;;;;;;41.78;24.88;;;384.90;2329.60;;;;;;5131136;28;20027;-68
2022/11/07 10:04:19;;;;;;;40.30;26.60;;;384.90;2329.60;;;;;;5130841;28;20469;-58
2022/11/07 10:07:07;;;;;;;48.38;27.60;;;384.90;2329.60;;;;;;5131302;28;20030;-67
2022/11/07 10:09:45;;;;;;;42.38;27.70;;;409.60;2355.20;;;;;;5130380;28;20121;-68
2022/11/07 10:12:25;;;;;;;39.33;25.55;;;384.90;2329.60;;;;;;5130792;28;20023;-64
2022/11/07 10:15:32;;;;;;;44.38;25.13;;;384.90;2329.60;;;;;;5131058;28;20031;-68
2022/11/07 10:18:16;;;;;;;38.47;23.50;;;409.60;2355.20;;;;;;5130708;28;20059;-68
2022/11/07 10:21:01;;;;;;;48.15;28.23;;;384.90;2329.60;;;;;;5130854;28;20072;-71
2022/11/07 10:23:43;;;;;;;45.50;25.38;;;409.70;2355.20;;;;;;5130696;28;20095;-66
2022/11/07 10:26:11;;;;;;;41.88;26.98;;;409.80;2355.20;;;;;;5130555;28;20046;-67
2022/11/07 10:28:59;;;;;;;43.47;25.10;;;409.90;2355.20;;;;;;5130452;28;20023;-68
2022/11/07 10:31:37;;;;;;;47.25;25.83;;;410.00;2355.20;;;;;;5130519;28;20022;-58
2022/11/07 10:34:25;;;;;;;38.33;23.67;;;410.10;2355.20;;;;;;5130709;28;20031;-70
2022/11/07 10:36:50;;;;;;;37.55;24.88;;;410.10;2355.20;;;;;;5134067;27;20088;-70
2022/11/07 10:39:18;;;;;;;40.88;26.58;;;410.20;2355.20;;;;;;5134489;27;20414;-69
2022/11/07 10:42:07;;;;;;;40.45;29.63;;;410.00;2355.20;;;;;;5134707;27;20055;-67
2022/11/07 10:44:34;;;;;;;35.22;19.95;;;409.80;2355.20;;;;;;5134740;27;20374;-70
2022/11/07 10:47:02;;;;;;;41.15;23.92;;;409.90;2355.20;;;;;;5134480;27;20034;-65
2022/11/07 10:49:31;;;;;;;38.92;24.00;;;409.90;2355.20;;;;;;5134274;27;20464;-70
2022/11/07 10:52:16;;;;;;;33.25;25.02;;;409.90;2355.20;;;;;;5134274;27;20034;-67
2022/11/07 10:54:43;;;;;;;45.20;29.02;;;410.10;2355.20;;;;;;5134768;27;20031;-66
2022/11/07 10:57:15;;;;;;;37.10;25.15;;;410.20;2355.20;;;;;;5134147;27;20375;-67
2022/11/07 10:59:55;;;;;;;35.88;24.17;;;410.00;2355.20;;;;;;5134238;27;20024;-67
2022/11/07 11:02:24;;;;;;;33.35;24.40;;;410.30;2355.20;;;;;;5134240;27;20477;-69
2022/11/07 11:04:54;;;;;;;34.95;25.40;;;410.00;2355.20;;;;;;5134113;27;20027;-65
2022/11/07 11:07:24;;;;;;;31.17;18.92;;;410.00;2355.20;;;;;;5134289;27;20023;-67
2022/11/07 11:09:55;;;;;;;31.85;22.55;;;409.90;2355.20;;;;;;5133670;27;20151;-65
2022/11/07 11:12:32;;;;;;;38.17;23.33;;;409.90;2355.20;;;;;;5134135;27;20354;-67
2022/11/07 11:15:18;;;;;;;32.35;21.08;;;410.20;2355.20;;;;;;5133836;27;20358;-66
2022/11/07 11:17:44;;;;;;;32.85;21.17;;;410.30;2355.20;;;;;;5134184;27;20075;-63
2022/11/07 11:20:35;;;;;;;30.23;19.52;;;410.20;2355.20;;;;;;5133830;27;20015;-68
2022/11/07 11:23:04;;;;;;;29.67;18.40;;;410.20;2355.20;;;;;;5133641;27;20422;-67
2022/11/07 11:25:30;;;;;;;29.25;19.83;;;410.30;2355.20;;;;;;5133605;27;20025;-67
2022/11/07 11:28:08;;;;;;;29.42;19.85;;;410.20;2355.20;;;;;;5133341;27;20039;-67
2022/11/07 11:30:35;;;;;;;31.90;22.25;;;410.40;2355.20;;;;;;5133747;27;20476;-64
2022/11/07 11:33:20;;;;;;;30.40;19.70;;;409.80;2355.20;;;;;;5133477;27;20392;-67
2022/11/07 11:35:51;;;;;;;34.67;22.80;;;409.60;2355.20;;;;;;5133361;27;20084;-59
2022/11/07 11:38:28;;;;;;;26.17;19.48;;;409.60;2355.20;;;;;;5133358;27;20496;-62
2022/11/07 11:40:58;;;;;;;27.50;18.95;;;409.70;2355.20;;;;;;5133302;27;20070;-64
2022/11/07 11:43:29;;;;;;;27.05;18.83;;;409.90;2355.20;;;;;;5133458;27;20480;-66
2022/11/07 11:46:13;;;;;;;29.40;19.85;;;409.80;2355.20;;;;;;5133298;27;20105;-64
2022/11/07 11:48:40;;;;;;;;;;;409.70;2355.20;;;;;;5132938;27;20373;-65
2022/11/07 11:51:16;;;;;;;22.25;16.35;;;410.00;2355.20;;;;;;5133164;27;19914;-67
2022/11/07 11:53:42;;;;;;;27.58;17.10;;;409.80;2355.20;;;;;;5133424;27;20023;-67
2022/11/07 11:56:31;;;;;;;29.33;19.55;;;409.90;2355.20;;;;;;5133030;27;20039;-66
2022/11/07 11:59:24;;;;;;;30.55;19.58;;;409.90;2355.20;;;;;;5049576;28;20036;-68
2022/11/07 12:02:08;;;;;;;90.93;49.83;;;410.00;2355.20;;;;;;5049738;28;20033;-66
2022/11/07 12:05:25;;;;;;;31.25;18.80;;;410.20;2355.20;;;;;;5049795;28;20040;-63
2022/11/07 12:08:28;;;;;;;29.20;18.73;;;410.20;2355.20;;;;;;5009758;28;20517;-61
2022/11/07 12:11:09;;;;;;;46.08;24.40;;;409.90;2355.20;;;;;;5009887;28;20042;-65
2022/11/07 12:13:52;;;;;;;31.67;20.88;;;410.00;2355.20;;;;;;5009943;28;20495;-67
2022/11/07 12:16:29;;;;;;;32.47;19.90;;;410.00;2355.20;;;;;;5009464;28;20042;-67
2022/11/07 12:19:08;;;;;;;71.72;54.78;;;409.90;2355.20;;;;;;5009368;28;20033;-59